createdAt,value
2019-03-18T00:00:27.007Z,3.90
2019-03-18T00:01:28.539Z,4.10
2019-03-18T00:02:28.988Z,3.20
2019-03-18T00:03:29.473Z,2.80
2019-03-18T00:04:29.928Z,2.80
2019-03-18T00:05:30.530Z,2.70
2019-03-18T00:06:30.976Z,2.40
2019-03-18T00:07:31.447Z,2.60
2019-03-18T00:08:31.906Z,2.60
2019-03-18T00:09:32.480Z,4.70
2019-03-18T00:10:33.001Z,3.10
2019-03-18T00:11:34.505Z,2.50
2019-03-18T00:12:34.956Z,2.30
2019-03-18T00:13:37.506Z,3.00
2019-03-18T00:14:37.971Z,2.70
2019-03-18T00:15:38.534Z,2.70
2019-03-18T00:16:38.987Z,2.90
2019-03-18T00:17:46.326Z,2.40
2019-03-18T00:18:46.759Z,3.00
2019-03-18T00:19:47.312Z,3.10
2019-03-18T00:20:47.761Z,3.60
2019-03-18T00:21:48.298Z,3.20
2019-03-18T00:22:48.745Z,2.40
2019-03-18T00:23:51.277Z,3.40
2019-03-18T00:24:51.727Z,2.40
2019-03-18T00:25:52.219Z,2.70
2019-03-18T00:26:52.664Z,2.60
2019-03-18T00:27:53.152Z,2.20
2019-03-18T00:28:53.609Z,3.40
2019-03-18T00:29:54.080Z,2.40
2019-03-18T00:30:54.519Z,1.90
2019-03-18T00:31:55.023Z,2.60
2019-03-18T00:32:55.531Z,2.70
2019-03-18T00:33:58.008Z,4.20
2019-03-18T00:34:58.537Z,3.20
2019-03-18T00:35:58.987Z,4.20
2019-03-18T00:36:59.459Z,2.90
2019-03-18T00:37:59.904Z,2.70
2019-03-18T00:39:00.498Z,2.50
2019-03-18T00:40:00.966Z,2.20
2019-03-18T00:41:01.410Z,2.20
2019-03-18T00:42:01.963Z,4.20
2019-03-18T00:43:02.419Z,3.20
2019-03-18T00:44:02.862Z,2.60
2019-03-18T00:45:14.118Z,2.70
2019-03-18T00:46:09.742Z,2.30
2019-03-18T00:47:10.201Z,2.30
2019-03-18T00:48:10.671Z,3.20
2019-03-18T00:49:11.118Z,1.70
2019-03-18T00:50:11.649Z,2.00
2019-03-18T00:51:12.093Z,2.30
2019-03-18T00:52:12.535Z,3.30
2019-03-18T00:53:12.969Z,2.50
2019-03-18T00:54:13.407Z,2.10
2019-03-18T00:55:13.867Z,2.50
2019-03-18T00:56:14.318Z,3.00
2019-03-18T00:57:14.756Z,2.10
2019-03-18T00:58:15.202Z,3.60
2019-03-18T00:59:15.642Z,3.50
2019-03-18T01:00:16.223Z,1.80
2019-03-18T01:01:16.672Z,2.30
2019-03-18T01:02:17.215Z,1.90
2019-03-18T01:03:22.622Z,2.90
2019-03-18T01:04:23.189Z,2.20
2019-03-18T01:05:23.670Z,2.20
2019-03-18T01:06:24.197Z,2.80
2019-03-18T01:07:24.710Z,3.60
2019-03-18T01:08:25.239Z,2.30
2019-03-18T01:09:25.690Z,2.80
2019-03-18T01:10:26.216Z,3.00
2019-03-18T01:11:26.669Z,1.80
2019-03-18T01:12:27.209Z,3.20
2019-03-18T01:13:27.649Z,2.50
2019-03-18T01:14:28.142Z,2.40
2019-03-18T01:15:28.887Z,1.70
2019-03-18T01:16:29.399Z,1.80
2019-03-18T01:17:29.838Z,2.10
2019-03-18T01:18:32.442Z,2.80
2019-03-18T01:19:32.884Z,2.80
2019-03-18T01:20:33.446Z,3.00
2019-03-18T01:21:33.895Z,3.50
2019-03-18T01:22:34.349Z,2.00
2019-03-18T01:23:34.792Z,1.70
2019-03-18T01:24:35.286Z,2.40
2019-03-18T01:25:35.755Z,2.10
2019-03-18T01:26:36.213Z,2.20
2019-03-18T01:27:36.668Z,2.30
2019-03-18T01:28:37.150Z,2.80
2019-03-18T01:29:37.599Z,3.30
2019-03-18T01:30:38.123Z,3.50
2019-03-18T01:31:38.575Z,2.60
2019-03-18T01:32:39.129Z,2.60
2019-03-18T01:33:39.597Z,3.10
2019-03-18T01:34:40.159Z,2.40
2019-03-18T01:35:40.616Z,2.30
2019-03-18T01:36:41.099Z,3.60
2019-03-18T01:37:41.534Z,2.90
2019-03-18T01:38:42.032Z,2.50
2019-03-18T01:39:42.468Z,2.10
2019-03-18T01:40:43.002Z,2.90
2019-03-18T01:41:43.445Z,3.40
2019-03-18T01:42:43.907Z,2.50
2019-03-18T01:43:44.408Z,3.50
2019-03-18T01:44:44.941Z,4.00
2019-03-18T01:45:45.392Z,3.50
2019-03-18T01:46:45.875Z,3.60
2019-03-18T01:47:46.355Z,6.90
2019-03-18T01:48:53.776Z,2.50
2019-03-18T01:49:54.237Z,2.50
2019-03-18T01:50:54.719Z,2.90
2019-03-18T01:51:55.221Z,2.40
2019-03-18T01:52:55.754Z,5.30
2019-03-18T01:53:56.203Z,2.30
2019-03-18T01:54:56.721Z,2.50
2019-03-18T01:55:57.164Z,3.60
2019-03-18T01:56:57.609Z,3.70
2019-03-18T01:57:58.070Z,3.50
2019-03-18T01:58:58.512Z,3.70
2019-03-18T01:59:59.126Z,3.60
2019-03-18T02:00:59.575Z,3.40
2019-03-18T02:02:01.098Z,2.80
2019-03-18T02:03:01.628Z,2.60
2019-03-18T02:04:03.152Z,3.40
2019-03-18T02:05:03.610Z,4.00
2019-03-18T02:06:19.757Z,2.90
2019-03-18T02:07:20.196Z,2.60
2019-03-18T02:08:22.797Z,2.70
2019-03-18T02:09:23.266Z,7.10
2019-03-18T02:10:23.725Z,2.80
2019-03-18T02:11:24.206Z,4.40
2019-03-18T02:12:24.685Z,4.80
2019-03-18T02:13:26.157Z,2.70
2019-03-18T02:14:26.601Z,5.10
2019-03-18T02:15:28.154Z,3.40
2019-03-18T02:16:28.598Z,3.10
2019-03-18T02:17:31.113Z,3.00
2019-03-18T02:18:31.586Z,4.10
2019-03-18T02:20:47.326Z,2.60
2019-03-18T02:21:49.878Z,2.90
2019-03-18T02:22:50.328Z,3.20
2019-03-18T02:23:51.832Z,3.90
2019-03-18T02:24:52.291Z,4.00
2019-03-18T02:25:52.796Z,3.50
2019-03-18T02:26:53.250Z,4.00
2019-03-18T02:27:53.887Z,4.50
2019-03-18T02:28:54.332Z,3.00
2019-03-18T02:29:55.865Z,2.70
2019-03-18T02:30:56.328Z,2.60
2019-03-18T02:32:03.765Z,3.90
2019-03-18T02:33:04.216Z,3.40
2019-03-18T02:34:05.413Z,5.00
2019-03-18T02:35:05.852Z,3.40
2019-03-18T02:36:10.797Z,4.50
2019-03-18T02:37:11.254Z,4.30
2019-03-18T02:38:32.779Z,4.00
2019-03-18T02:39:33.229Z,4.20
2019-03-18T02:40:38.793Z,3.60
2019-03-18T02:41:39.255Z,4.60
2019-03-18T02:43:00.772Z,4.60
2019-03-18T02:44:01.228Z,3.80
2019-03-18T02:45:01.708Z,3.50
2019-03-18T02:46:10.226Z,4.50
2019-03-18T02:47:08.585Z,4.50
2019-03-18T02:48:31.113Z,4.00
2019-03-18T02:49:31.668Z,5.30
2019-03-18T02:50:40.792Z,5.30
2019-03-18T02:51:41.243Z,5.60
2019-03-18T02:53:17.323Z,4.30
2019-03-18T02:54:17.775Z,4.70
2019-03-18T02:55:22.308Z,5.10
2019-03-18T02:56:22.764Z,4.30
2019-03-18T02:57:58.821Z,6.00
2019-03-18T02:58:59.264Z,4.00
2019-03-18T02:59:59.752Z,4.80
2019-03-18T03:01:00.229Z,4.00
2019-03-18T03:02:01.715Z,5.20
2019-03-18T03:03:02.171Z,4.40
2019-03-18T03:04:25.696Z,4.70
2019-03-18T03:05:26.180Z,6.00
2019-03-18T03:06:26.724Z,4.60
2019-03-18T03:07:27.181Z,4.60
2019-03-18T03:08:35.241Z,4.90
2019-03-18T03:09:35.694Z,4.90
2019-03-18T03:10:39.289Z,5.80
2019-03-18T03:11:39.745Z,6.20
2019-03-18T03:14:51.996Z,4.00
2019-03-18T03:15:52.529Z,4.90
2019-03-18T03:16:52.986Z,4.30
2019-03-18T03:18:02.234Z,5.60
2019-03-18T03:19:02.688Z,5.30
2019-03-18T03:20:04.172Z,5.30
2019-03-18T03:21:04.645Z,4.00
2019-03-18T03:22:05.089Z,3.40
2019-03-18T03:23:05.624Z,4.30
2019-03-18T03:24:06.080Z,4.20
2019-03-18T03:25:06.537Z,3.90
2019-03-18T03:26:07.155Z,3.80
2019-03-18T03:27:07.615Z,4.00
2019-03-18T03:28:08.112Z,3.70
2019-03-18T03:29:08.555Z,4.30
2019-03-18T03:30:09.115Z,3.90
2019-03-18T03:31:09.597Z,3.90
2019-03-18T03:32:10.122Z,4.90
2019-03-18T03:33:10.602Z,4.70
2019-03-18T03:34:14.031Z,3.90
2019-03-18T03:35:14.919Z,3.50
2019-03-18T03:36:15.485Z,3.30
2019-03-18T03:37:15.934Z,3.60
2019-03-18T03:38:16.381Z,3.30
2019-03-18T03:39:16.888Z,4.60
2019-03-18T03:40:17.331Z,4.10
2019-03-18T03:41:19.947Z,3.90
2019-03-18T03:42:20.391Z,4.00
2019-03-18T03:43:20.939Z,3.70
2019-03-18T03:44:21.384Z,3.90
2019-03-18T03:45:21.840Z,3.70
2019-03-18T03:46:22.293Z,3.70
2019-03-18T03:47:22.749Z,3.60
2019-03-18T03:48:23.198Z,3.40
2019-03-18T03:49:23.670Z,3.80
2019-03-18T03:50:24.151Z,4.30
2019-03-18T03:51:25.056Z,4.20
2019-03-18T03:52:25.501Z,4.30
2019-03-18T03:53:25.948Z,4.40
2019-03-18T03:54:26.550Z,4.20
2019-03-18T03:55:27.032Z,4.60
2019-03-18T03:56:27.619Z,4.50
2019-03-18T03:57:28.064Z,4.70
2019-03-18T03:58:28.538Z,4.30
2019-03-18T03:59:29.042Z,4.10
2019-03-18T04:00:29.492Z,4.80
2019-03-18T04:01:29.965Z,4.70
2019-03-18T04:02:31.619Z,4.30
2019-03-18T04:03:38.146Z,4.80
2019-03-18T04:04:38.484Z,5.10
2019-03-18T04:05:39.013Z,5.90
2019-03-18T04:06:39.524Z,4.90
2019-03-18T04:07:39.963Z,5.70
2019-03-18T04:08:40.432Z,5.10
2019-03-18T04:09:40.890Z,5.50
2019-03-18T04:10:41.340Z,5.00
2019-03-18T04:11:41.790Z,5.10
2019-03-18T04:12:42.262Z,5.20
2019-03-18T04:13:42.724Z,5.70
2019-03-18T04:14:43.189Z,5.80
2019-03-18T04:15:43.665Z,5.10
2019-03-18T04:16:55.890Z,4.80
2019-03-18T04:17:50.520Z,4.90
2019-03-18T04:18:50.975Z,4.30
2019-03-18T04:19:51.426Z,4.60
2019-03-18T04:20:51.962Z,5.90
2019-03-18T04:21:52.401Z,4.80
2019-03-18T04:22:52.981Z,5.40
2019-03-18T04:23:53.450Z,5.00
2019-03-18T04:24:53.916Z,4.40
2019-03-18T04:25:54.458Z,4.70
2019-03-18T04:26:54.931Z,4.90
2019-03-18T04:27:55.419Z,5.00
2019-03-18T04:28:55.962Z,5.50
2019-03-18T04:29:56.406Z,5.30
2019-03-18T04:30:57.958Z,5.90
2019-03-18T04:31:58.397Z,5.30
2019-03-18T04:32:59.880Z,4.90
2019-03-18T04:34:00.328Z,4.60
2019-03-18T04:35:00.761Z,3.90
2019-03-18T04:36:03.324Z,4.30
2019-03-18T04:37:03.819Z,4.50
2019-03-18T04:38:04.323Z,5.10
2019-03-18T04:39:04.780Z,4.80
2019-03-18T04:40:05.231Z,4.80
2019-03-18T04:41:05.702Z,4.60
2019-03-18T04:42:06.143Z,5.60
2019-03-18T04:43:06.590Z,5.00
2019-03-18T04:44:07.028Z,6.10
2019-03-18T04:45:07.466Z,4.80
2019-03-18T04:46:07.923Z,5.20
2019-03-18T04:47:14.096Z,4.90
2019-03-18T04:48:14.788Z,4.70
2019-03-18T04:49:15.242Z,4.80
2019-03-18T04:50:15.698Z,7.20
2019-03-18T04:51:16.159Z,5.40
2019-03-18T04:52:16.701Z,5.80
2019-03-18T04:53:17.144Z,7.60
2019-03-18T04:54:17.701Z,5.80
2019-03-18T04:55:18.155Z,5.40
2019-03-18T04:56:18.608Z,5.90
2019-03-18T04:57:19.103Z,5.30
2019-03-18T04:58:19.560Z,5.30
2019-03-18T04:59:21.055Z,5.90
2019-03-18T05:00:21.504Z,6.00
2019-03-18T05:01:22.019Z,6.70
2019-03-18T05:02:22.478Z,5.70
2019-03-18T05:03:22.926Z,6.50
2019-03-18T05:04:23.359Z,5.90
2019-03-18T05:05:23.832Z,5.40
2019-03-18T05:06:24.291Z,5.10
2019-03-18T05:07:24.813Z,7.50
2019-03-18T05:08:25.277Z,6.30
2019-03-18T05:09:25.717Z,6.50
2019-03-18T05:10:26.162Z,5.90
2019-03-18T05:11:26.632Z,7.10
2019-03-18T05:12:27.081Z,6.30
2019-03-18T05:13:27.597Z,5.80
2019-03-18T05:14:28.054Z,5.90
2019-03-18T05:15:28.537Z,6.70
2019-03-18T05:16:28.992Z,6.30
2019-03-18T05:17:29.469Z,6.50
2019-03-18T05:18:29.911Z,9.10
2019-03-18T05:19:30.406Z,7.20
2019-03-18T05:20:30.842Z,6.70
2019-03-18T05:21:32.355Z,7.30
2019-03-18T05:22:32.789Z,6.90
2019-03-18T05:23:33.301Z,7.60
2019-03-18T05:24:33.758Z,7.20
2019-03-18T05:25:34.196Z,7.80
2019-03-18T05:26:34.647Z,7.80
2019-03-18T05:27:35.121Z,6.80
2019-03-18T05:28:35.567Z,7.80
2019-03-18T05:29:36.002Z,8.40
2019-03-18T05:30:36.448Z,7.80
2019-03-18T05:31:36.899Z,7.80
2019-03-18T05:32:37.348Z,6.70
2019-03-18T05:33:37.806Z,6.90
2019-03-18T05:34:38.254Z,7.90
2019-03-18T05:35:38.692Z,6.80
2019-03-18T05:36:39.234Z,6.80
2019-03-18T05:37:39.684Z,7.00
2019-03-18T05:38:40.124Z,6.70
2019-03-18T05:39:40.562Z,6.70
2019-03-18T05:40:41.056Z,8.90
2019-03-18T05:41:41.515Z,9.40
2019-03-18T05:42:41.972Z,8.50
2019-03-18T05:43:42.424Z,7.90
2019-03-18T05:44:42.864Z,7.80
2019-03-18T05:45:43.313Z,8.70
2019-03-18T05:46:43.791Z,10.30
2019-03-18T05:47:44.233Z,9.00
2019-03-18T05:48:44.689Z,8.30
2019-03-18T05:49:45.130Z,7.80
2019-03-18T05:50:45.582Z,8.30
2019-03-18T05:51:47.100Z,8.50
2019-03-18T05:52:47.549Z,8.60
2019-03-18T05:53:48.089Z,8.00
2019-03-18T05:54:48.526Z,9.20
2019-03-18T05:55:49.038Z,10.80
2019-03-18T05:56:49.504Z,10.00
2019-03-18T05:57:51.042Z,9.40
2019-03-18T05:58:51.483Z,9.20
2019-03-18T05:59:52.027Z,9.10
2019-03-18T06:00:52.476Z,12.40
2019-03-18T06:01:53.001Z,9.60
2019-03-18T06:02:53.462Z,8.40
2019-03-18T06:03:54.007Z,7.00
2019-03-18T06:04:55.227Z,6.70
2019-03-18T06:05:56.817Z,6.60
2019-03-18T06:06:57.283Z,7.20
2019-03-18T06:07:57.813Z,7.00
2019-03-18T06:08:58.250Z,7.30
2019-03-18T06:10:19.741Z,7.10
2019-03-18T06:11:20.765Z,7.50
2019-03-18T06:12:21.338Z,8.00
2019-03-18T06:13:21.770Z,8.40
2019-03-18T06:14:22.336Z,7.40
2019-03-18T06:15:22.775Z,7.00
2019-03-18T06:16:23.236Z,6.60
2019-03-18T06:17:23.701Z,6.60
2019-03-18T06:18:24.143Z,7.00
2019-03-18T06:19:24.587Z,7.20
2019-03-18T06:20:25.089Z,8.10
2019-03-18T06:21:25.580Z,7.10
2019-03-18T06:22:26.046Z,6.90
2019-03-18T06:23:26.499Z,6.40
2019-03-18T06:24:26.954Z,6.60
2019-03-18T06:25:27.402Z,6.60
2019-03-18T06:26:27.947Z,5.70
2019-03-18T06:27:28.411Z,5.60
2019-03-18T06:28:28.857Z,6.40
2019-03-18T06:29:29.306Z,7.40
2019-03-18T06:30:29.736Z,6.60
2019-03-18T06:31:30.209Z,6.60
2019-03-18T06:32:30.667Z,7.10
2019-03-18T06:33:31.108Z,4.50
2019-03-18T06:34:31.549Z,4.70
2019-03-18T06:35:32.094Z,5.80
2019-03-18T06:36:32.529Z,6.90
2019-03-18T06:37:33.034Z,4.30
2019-03-18T06:38:33.477Z,4.40
2019-03-18T06:39:33.939Z,8.00
2019-03-18T06:40:34.381Z,6.30
2019-03-18T06:41:34.878Z,7.30
2019-03-18T06:42:35.358Z,5.80
2019-03-18T06:43:35.910Z,6.30
2019-03-18T06:44:36.361Z,5.80
2019-03-18T06:45:36.806Z,6.00
2019-03-18T06:46:37.240Z,6.40
2019-03-18T06:47:37.710Z,5.40
2019-03-18T06:48:45.163Z,6.00
2019-03-18T06:49:45.619Z,6.20
2019-03-18T06:50:46.124Z,6.10
2019-03-18T06:51:46.615Z,5.90
2019-03-18T06:52:47.058Z,6.70
2019-03-18T06:53:47.504Z,6.40
2019-03-18T06:54:47.949Z,7.20
2019-03-18T06:55:48.393Z,5.10
2019-03-18T06:56:48.855Z,7.20
2019-03-18T06:57:49.300Z,11.80
2019-03-18T06:58:49.741Z,9.00
2019-03-18T06:59:50.185Z,8.20
2019-03-18T07:00:50.717Z,5.90
2019-03-18T07:01:51.180Z,10.50
2019-03-18T07:03:07.676Z,7.00
2019-03-18T07:04:08.113Z,7.60
2019-03-18T07:05:08.580Z,7.80
2019-03-18T07:06:09.028Z,8.10
2019-03-18T07:07:09.517Z,6.10
2019-03-18T07:08:09.964Z,7.70
2019-03-18T07:09:10.408Z,7.90
2019-03-18T07:10:10.849Z,6.10
2019-03-18T07:11:11.299Z,7.80
2019-03-18T07:12:11.763Z,8.70
2019-03-18T07:13:12.248Z,7.50
2019-03-18T07:14:12.754Z,6.60
2019-03-18T07:15:13.212Z,7.90
2019-03-18T07:16:13.659Z,8.00
2019-03-18T07:17:14.131Z,6.40
2019-03-18T07:18:18.474Z,5.90
2019-03-18T07:19:19.225Z,7.20
2019-03-18T07:20:19.685Z,7.20
2019-03-18T07:21:20.192Z,8.40
2019-03-18T07:22:20.647Z,7.20
2019-03-18T07:23:21.203Z,7.90
2019-03-18T07:24:21.657Z,6.40
2019-03-18T07:25:22.112Z,5.40
2019-03-18T07:26:22.553Z,7.20
2019-03-18T07:27:23.041Z,7.10
2019-03-18T07:28:23.501Z,6.90
2019-03-18T07:29:23.948Z,8.50
2019-03-18T07:30:24.408Z,10.50
2019-03-18T07:31:24.869Z,7.90
2019-03-18T07:32:25.408Z,8.40
2019-03-18T07:33:25.871Z,8.20
2019-03-18T07:34:26.326Z,6.30
2019-03-18T07:35:26.770Z,7.00
2019-03-18T07:36:27.201Z,9.90
2019-03-18T07:37:27.657Z,7.70
2019-03-18T07:38:28.145Z,7.10
2019-03-18T07:39:28.589Z,10.10
2019-03-18T07:40:29.033Z,6.80
2019-03-18T07:41:29.483Z,6.40
2019-03-18T07:42:30.036Z,9.10
2019-03-18T07:43:30.573Z,7.90
2019-03-18T07:44:32.115Z,8.50
2019-03-18T07:45:32.567Z,8.00
2019-03-18T07:46:33.022Z,6.70
2019-03-18T07:47:33.498Z,8.70
2019-03-18T07:48:33.986Z,7.30
2019-03-18T07:49:34.460Z,7.40
2019-03-18T07:50:34.982Z,6.00
2019-03-18T07:51:35.422Z,7.60
2019-03-18T07:52:35.893Z,6.40
2019-03-18T07:53:36.362Z,7.20
2019-03-18T07:54:36.817Z,7.60
2019-03-18T07:55:37.306Z,6.60
2019-03-18T07:56:37.765Z,6.70
2019-03-18T07:57:38.268Z,6.50
2019-03-18T07:58:38.703Z,5.70
2019-03-18T07:59:40.196Z,6.80
2019-03-18T08:00:40.666Z,7.80
2019-03-18T08:01:41.233Z,8.40
2019-03-18T08:02:41.726Z,8.10
2019-03-18T08:03:43.199Z,8.10
2019-03-18T08:04:43.654Z,7.10
2019-03-18T08:05:44.130Z,9.60
2019-03-18T08:06:44.622Z,8.30
2019-03-18T08:07:46.122Z,8.40
2019-03-18T08:08:46.650Z,6.10
2019-03-18T08:09:47.128Z,6.30
2019-03-18T08:10:47.608Z,6.60
2019-03-18T08:11:48.173Z,7.30
2019-03-18T08:12:48.650Z,7.90
2019-03-18T08:13:49.243Z,5.20
2019-03-18T08:14:49.691Z,5.90
2019-03-18T08:15:50.133Z,7.30
2019-03-18T08:16:50.576Z,7.50
2019-03-18T08:17:51.119Z,6.40
2019-03-18T08:18:51.585Z,8.90
2019-03-18T08:19:52.032Z,7.50
2019-03-18T08:20:52.527Z,6.40
2019-03-18T08:21:52.972Z,4.60
2019-03-18T08:22:53.592Z,5.70
2019-03-18T08:23:54.037Z,6.50
2019-03-18T08:24:54.485Z,7.70
2019-03-18T08:25:54.952Z,7.00
2019-03-18T08:26:55.402Z,8.30
2019-03-18T08:27:55.874Z,5.90
2019-03-18T08:28:56.366Z,5.70
2019-03-18T08:29:56.809Z,5.90
2019-03-18T08:30:57.307Z,5.80
2019-03-18T08:31:57.763Z,10.40
2019-03-18T08:32:58.278Z,5.50
2019-03-18T08:33:58.730Z,9.90
2019-03-18T08:34:59.276Z,9.70
2019-03-18T08:35:59.717Z,8.20
2019-03-18T08:37:08.206Z,6.90
2019-03-18T08:38:08.696Z,7.40
2019-03-18T08:39:10.285Z,8.60
2019-03-18T08:40:10.733Z,11.10
2019-03-18T08:41:12.196Z,10.70
2019-03-18T08:42:12.635Z,9.70
2019-03-18T08:43:13.090Z,10.20
2019-03-18T08:44:13.574Z,8.50
2019-03-18T08:45:14.050Z,8.40
2019-03-18T08:46:14.615Z,10.90
2019-03-18T08:47:15.062Z,11.00
2019-03-18T08:48:15.544Z,12.30
2019-03-18T08:49:15.992Z,9.50
2019-03-18T08:50:18.485Z,6.80
2019-03-18T08:51:19.122Z,13.40
2019-03-18T08:52:19.642Z,10.00
2019-03-18T08:53:20.201Z,12.60
2019-03-18T08:54:20.650Z,8.70
2019-03-18T08:55:21.105Z,11.80
2019-03-18T08:56:21.545Z,8.40
2019-03-18T08:57:22.032Z,10.50
2019-03-18T08:58:22.500Z,7.20
2019-03-18T08:59:22.947Z,9.70
2019-03-18T09:00:23.399Z,11.70
2019-03-18T09:01:23.909Z,7.20
2019-03-18T09:02:24.364Z,9.90
2019-03-18T09:03:24.980Z,6.20
2019-03-18T09:04:25.455Z,8.40
2019-03-18T09:05:25.931Z,7.00
2019-03-18T09:06:26.371Z,6.30
2019-03-18T09:07:26.887Z,7.80
2019-03-18T09:08:27.409Z,6.40
2019-03-18T09:09:27.923Z,4.90
2019-03-18T09:10:28.414Z,5.80
2019-03-18T09:11:28.966Z,9.20
2019-03-18T09:12:29.400Z,6.30
2019-03-18T09:13:31.958Z,9.30
2019-03-18T09:14:32.667Z,9.00
2019-03-18T09:15:33.185Z,10.30
2019-03-18T09:16:33.638Z,7.10
2019-03-18T09:17:34.222Z,7.80
2019-03-18T09:18:34.695Z,8.40
2019-03-18T09:19:35.309Z,5.50
2019-03-18T09:20:35.771Z,4.80
2019-03-18T09:21:36.290Z,7.60
2019-03-18T09:22:36.745Z,7.60
2019-03-18T09:23:37.373Z,5.80
2019-03-18T09:24:37.842Z,7.30
2019-03-18T09:25:38.365Z,6.60
2019-03-18T09:26:38.817Z,7.60
2019-03-18T09:27:39.257Z,3.60
2019-03-18T09:28:39.719Z,7.20
2019-03-18T09:29:41.270Z,7.90
2019-03-18T09:30:41.826Z,5.30
2019-03-18T09:31:44.412Z,8.00
2019-03-18T09:32:44.903Z,5.90
2019-03-18T09:33:45.466Z,6.50
2019-03-18T09:34:45.910Z,7.60
2019-03-18T09:35:46.355Z,9.50
2019-03-18T09:36:46.813Z,7.20
2019-03-18T09:37:47.261Z,9.60
2019-03-18T09:38:47.799Z,7.20
2019-03-18T09:39:48.299Z,6.60
2019-03-18T09:40:48.793Z,4.30
2019-03-18T09:41:49.335Z,6.50
2019-03-18T09:42:49.806Z,5.40
2019-03-18T09:43:50.370Z,6.60
2019-03-18T09:44:50.812Z,3.90
2019-03-18T09:45:51.300Z,3.70
2019-03-18T09:46:51.780Z,4.20
2019-03-18T09:47:52.378Z,6.20
2019-03-18T09:48:52.816Z,6.50
2019-03-18T09:49:53.286Z,3.50
2019-03-18T09:50:53.731Z,4.40
2019-03-18T09:51:55.255Z,3.80
2019-03-18T09:52:56.015Z,4.40
2019-03-18T09:53:56.582Z,4.30
2019-03-18T09:54:57.016Z,5.00
2019-03-18T09:55:58.559Z,6.80
2019-03-18T09:56:59.011Z,8.00
2019-03-18T09:57:59.516Z,7.80
2019-03-18T09:58:59.959Z,7.20
2019-03-18T10:00:00.512Z,8.90
2019-03-18T10:01:00.994Z,5.90
2019-03-18T10:02:03.499Z,6.10
2019-03-18T10:03:03.974Z,4.30
2019-03-18T10:04:04.527Z,5.80
2019-03-18T10:05:04.963Z,4.90
2019-03-18T10:06:05.402Z,5.90
2019-03-18T10:07:05.854Z,5.50
2019-03-18T10:08:06.315Z,12.00
2019-03-18T10:09:06.829Z,6.70
2019-03-18T10:10:07.290Z,5.60
2019-03-18T10:11:07.863Z,4.60
2019-03-18T10:12:08.308Z,6.00
2019-03-18T10:13:08.834Z,7.90
2019-03-18T10:14:09.271Z,6.20
2019-03-18T10:15:10.763Z,5.20
2019-03-18T10:16:11.221Z,8.30
2019-03-18T10:17:11.813Z,10.90
2019-03-18T10:18:12.291Z,5.20
2019-03-18T10:19:12.829Z,7.40
2019-03-18T10:20:13.265Z,6.80
2019-03-18T10:21:13.763Z,6.10
2019-03-18T10:22:14.210Z,5.30
2019-03-18T10:23:18.218Z,5.10
2019-03-18T10:24:18.657Z,6.60
2019-03-18T10:25:20.139Z,6.20
2019-03-18T10:26:20.631Z,8.90
2019-03-18T10:27:21.185Z,8.90
2019-03-18T10:28:21.650Z,7.40
2019-03-18T10:29:24.159Z,5.90
2019-03-18T10:30:24.608Z,7.50
2019-03-18T10:31:25.109Z,7.00
2019-03-18T10:32:25.583Z,4.70
2019-03-18T10:33:26.169Z,7.20
2019-03-18T10:34:26.621Z,6.40
2019-03-18T10:35:50.222Z,5.00
2019-03-18T10:36:50.741Z,7.70
2019-03-18T10:37:51.263Z,6.80
2019-03-18T10:38:52.907Z,7.80
2019-03-18T10:39:53.622Z,8.10
2019-03-18T10:40:54.081Z,6.70
2019-03-18T10:42:01.304Z,7.00
2019-03-18T10:43:01.749Z,8.60
2019-03-18T10:44:02.404Z,6.70
2019-03-18T10:45:02.859Z,7.20
2019-03-18T10:46:03.478Z,7.30
2019-03-18T10:47:03.919Z,7.30
2019-03-18T10:48:04.356Z,6.60
2019-03-18T10:49:04.850Z,6.80
2019-03-18T10:50:05.298Z,6.80
2019-03-18T10:51:05.988Z,5.50
2019-03-18T10:52:06.460Z,5.30
2019-03-18T10:53:07.180Z,7.30
2019-03-18T10:54:07.692Z,4.20
2019-03-18T10:55:08.223Z,6.20
2019-03-18T10:56:08.691Z,5.30
2019-03-18T10:57:09.145Z,4.10
2019-03-18T10:58:09.590Z,4.40
2019-03-18T10:59:10.062Z,6.20
2019-03-18T11:00:10.621Z,6.40
2019-03-18T11:01:11.062Z,7.10
2019-03-18T11:02:11.514Z,9.10
2019-03-18T11:03:11.987Z,5.90
2019-03-18T11:04:12.453Z,5.50
2019-03-18T11:05:12.900Z,5.80
2019-03-18T11:06:13.535Z,7.90
2019-03-18T11:07:13.983Z,5.20
2019-03-18T11:08:14.468Z,3.70
2019-03-18T11:09:14.928Z,4.90
2019-03-18T11:10:15.404Z,3.80
2019-03-18T11:11:15.852Z,6.20
2019-03-18T11:12:16.471Z,4.90
2019-03-18T11:13:17.017Z,2.80
2019-03-18T11:14:17.629Z,3.40
2019-03-18T11:15:18.085Z,5.40
2019-03-18T11:16:18.618Z,5.40
2019-03-18T11:17:19.055Z,2.70
2019-03-18T11:18:19.600Z,4.30
2019-03-18T11:19:20.067Z,2.90
2019-03-18T11:20:20.587Z,3.30
2019-03-18T11:21:21.050Z,4.30
2019-03-18T11:22:21.580Z,4.50
2019-03-18T11:23:22.059Z,4.40
2019-03-18T11:24:22.631Z,3.40
2019-03-18T11:25:23.074Z,7.40
2019-03-18T11:26:23.510Z,6.50
2019-03-18T11:27:23.962Z,5.80
2019-03-18T11:28:24.476Z,4.90
2019-03-18T11:29:24.921Z,3.70
2019-03-18T11:30:25.472Z,4.00
2019-03-18T11:31:25.927Z,3.60
2019-03-18T11:32:26.409Z,3.80
2019-03-18T11:33:28.551Z,3.00
2019-03-18T11:34:31.267Z,4.60
2019-03-18T11:35:31.714Z,4.90
2019-03-18T11:36:32.293Z,5.10
2019-03-18T11:37:32.762Z,3.00
2019-03-18T11:38:33.429Z,4.80
2019-03-18T11:39:33.867Z,4.10
2019-03-18T11:40:34.454Z,5.60
2019-03-18T11:41:34.902Z,2.70
2019-03-18T11:42:35.384Z,4.00
2019-03-18T11:43:35.853Z,4.00
2019-03-18T11:44:36.436Z,2.90
2019-03-18T11:45:36.887Z,3.90
2019-03-18T11:46:40.241Z,6.70
2019-03-18T11:47:41.082Z,6.20
2019-03-18T11:48:41.613Z,7.70
2019-03-18T11:49:42.059Z,3.40
2019-03-18T11:50:42.614Z,2.80
2019-03-18T11:51:43.058Z,4.90
2019-03-18T11:52:43.543Z,6.50
2019-03-18T11:53:44.013Z,3.20
2019-03-18T11:54:44.589Z,2.90
2019-03-18T11:55:45.031Z,4.20
2019-03-18T11:56:45.583Z,5.10
2019-03-18T11:57:46.036Z,3.10
2019-03-18T11:58:46.655Z,3.40
2019-03-18T11:59:47.128Z,5.70
2019-03-18T12:00:47.756Z,6.60
2019-03-18T12:01:48.213Z,4.30
2019-03-18T12:02:48.810Z,2.70
2019-03-18T12:03:49.282Z,3.20
2019-03-18T12:04:49.827Z,2.80
2019-03-18T12:05:50.285Z,2.40
2019-03-18T12:06:50.948Z,3.40
2019-03-18T12:07:51.420Z,2.10
2019-03-18T12:08:52.035Z,1.30
2019-03-18T12:09:52.497Z,1.60
2019-03-18T12:10:53.036Z,2.70
2019-03-18T12:11:53.474Z,3.20
2019-03-18T12:12:54.090Z,4.30
2019-03-18T12:13:54.622Z,3.30
2019-03-18T12:14:55.325Z,3.20
2019-03-18T12:15:55.791Z,3.20
2019-03-18T12:16:58.411Z,3.40
2019-03-18T12:17:58.852Z,3.50
2019-03-18T12:18:59.481Z,5.30
2019-03-18T12:19:59.934Z,5.20
2019-03-18T12:21:01.520Z,5.30
2019-03-18T12:22:01.974Z,3.70
2019-03-18T12:23:03.593Z,3.00
2019-03-18T12:24:04.056Z,5.20
2019-03-18T12:25:04.614Z,3.70
2019-03-18T12:26:05.112Z,4.60
2019-03-18T12:27:05.772Z,4.10
2019-03-18T12:28:06.245Z,4.60
2019-03-18T12:29:06.826Z,3.90
2019-03-18T12:30:07.741Z,2.70
2019-03-18T12:31:08.338Z,5.30
2019-03-18T12:32:09.305Z,5.80
2019-03-18T12:33:09.757Z,5.20
2019-03-18T12:34:10.226Z,4.20
2019-03-18T12:35:10.671Z,2.80
2019-03-18T12:36:11.111Z,3.80
2019-03-18T12:37:11.708Z,3.10
2019-03-18T12:38:12.301Z,4.60
2019-03-18T12:39:12.839Z,3.10
2019-03-18T12:40:13.476Z,4.10
2019-03-18T12:41:13.938Z,5.60
2019-03-18T12:42:14.400Z,3.80
2019-03-18T12:43:14.864Z,6.20
2019-03-18T12:44:15.338Z,6.20
2019-03-18T12:45:15.788Z,4.50
2019-03-18T12:46:16.432Z,6.80
2019-03-18T12:47:16.872Z,5.70
2019-03-18T12:48:17.524Z,6.40
2019-03-18T12:49:18.020Z,6.70
2019-03-18T12:50:18.617Z,4.10
2019-03-18T12:51:19.068Z,5.70
2019-03-18T12:52:20.566Z,4.20
2019-03-18T12:53:21.003Z,5.50
2019-03-18T12:54:21.649Z,5.80
2019-03-18T12:55:22.117Z,2.90
2019-03-18T12:56:22.647Z,3.50
2019-03-18T12:57:23.085Z,2.30
2019-03-18T12:58:23.575Z,4.00
2019-03-18T12:59:24.066Z,4.70
2019-03-18T13:00:26.559Z,3.70
2019-03-18T13:01:29.863Z,5.20
2019-03-18T13:02:32.723Z,3.40
2019-03-18T13:03:33.216Z,3.20
2019-03-18T13:04:34.261Z,3.10
2019-03-18T13:05:34.784Z,3.50
2019-03-18T13:06:35.306Z,4.20
2019-03-18T13:07:35.756Z,3.30
2019-03-18T13:08:36.248Z,4.20
2019-03-18T13:09:36.786Z,3.70
2019-03-18T13:10:37.385Z,3.80
2019-03-18T13:11:37.834Z,4.50
2019-03-18T13:12:38.328Z,3.30
2019-03-18T13:13:38.810Z,2.90
2019-03-18T13:14:39.406Z,5.60
2019-03-18T13:15:39.859Z,6.10
2019-03-18T13:16:40.391Z,6.20
2019-03-18T13:17:43.753Z,6.70
2019-03-18T13:18:44.605Z,7.20
2019-03-18T13:19:45.073Z,4.00
2019-03-18T13:20:45.509Z,4.60
2019-03-18T13:21:46.107Z,3.80
2019-03-18T13:22:46.556Z,4.70
2019-03-18T13:23:48.121Z,5.00
2019-03-18T13:24:48.576Z,7.40
2019-03-18T13:25:50.096Z,5.40
2019-03-18T13:26:50.553Z,9.40
2019-03-18T13:27:52.049Z,7.00
2019-03-18T13:28:52.480Z,8.10
2019-03-18T13:29:53.035Z,7.90
2019-03-18T13:30:53.486Z,4.90
2019-03-18T13:31:54.020Z,3.70
2019-03-18T13:32:54.476Z,6.40
2019-03-18T13:33:55.002Z,3.40
2019-03-18T13:34:55.476Z,5.10